createdAt,value
2019-02-23T00:01:00.411Z,618.92
2019-02-23T00:03:30.207Z,609.10
2019-02-23T00:05:59.819Z,608.53
2019-02-23T00:08:29.446Z,610.50
2019-02-23T00:10:59.031Z,606.10
2019-02-23T00:13:28.883Z,608.62
2019-02-23T00:15:58.613Z,610.30
2019-02-23T00:18:29.491Z,602.97
2019-02-23T00:20:59.137Z,613.48
2019-02-23T00:23:28.939Z,614.42
2019-02-23T00:25:58.878Z,605.17
2019-02-23T00:28:28.620Z,606.70
2019-02-23T00:30:58.415Z,600.40
2019-02-23T00:33:28.136Z,600.33
2019-02-23T00:35:57.853Z,600.80
2019-02-23T00:38:27.457Z,623.80
2019-02-23T00:40:57.164Z,603.38
2019-02-23T00:43:26.823Z,600.43
2019-02-23T00:45:56.512Z,605.83
2019-02-23T00:48:26.120Z,593.55
2019-02-23T00:50:55.886Z,605.25
2019-02-23T00:53:25.555Z,599.80
2019-02-23T00:55:55.437Z,597.90
2019-02-23T00:58:25.170Z,606.47
2019-02-23T01:00:54.899Z,608.53
2019-02-23T01:03:24.591Z,597.37
2019-02-23T01:05:54.266Z,597.55
2019-02-23T01:08:23.871Z,605.03
2019-02-23T01:10:58.118Z,586.17
2019-02-23T01:13:24.895Z,588.63
2019-02-23T01:15:54.572Z,581.52
2019-02-23T01:18:25.339Z,578.05
2019-02-23T01:20:55.002Z,573.60
2019-02-23T01:23:24.766Z,560.92
2019-02-23T01:25:54.456Z,566.25
2019-02-23T01:28:24.127Z,566.58
2019-02-23T01:30:53.718Z,572.35
2019-02-23T01:33:24.473Z,577.85
2019-02-23T01:35:54.081Z,566.90
2019-02-23T01:38:23.798Z,567.42
2019-02-23T01:40:53.476Z,577.08
2019-02-23T01:43:24.237Z,573.58
2019-02-23T01:45:53.918Z,580.10
2019-02-23T01:48:23.576Z,573.65
2019-02-23T01:50:53.364Z,585.70
2019-02-23T01:53:23.090Z,586.65
2019-02-23T01:55:52.774Z,593.65
2019-02-23T01:58:22.533Z,580.67
2019-02-23T02:00:52.307Z,576.17
2019-02-23T02:03:22.149Z,565.08
2019-02-23T02:05:52.326Z,566.17
2019-02-23T02:08:22.109Z,573.15
2019-02-23T02:10:51.934Z,567.58
2019-02-23T02:13:21.749Z,573.45
2019-02-23T02:15:51.493Z,567.35
2019-02-23T02:18:21.224Z,565.73
2019-02-23T02:20:50.817Z,566.33
2019-02-23T02:23:20.628Z,569.73
2019-02-23T02:25:50.324Z,577.88
2019-02-23T02:28:20.019Z,569.00
2019-02-23T02:30:49.709Z,579.10
2019-02-23T02:33:19.490Z,583.12
2019-02-23T02:35:49.245Z,571.85
2019-02-23T02:38:19.013Z,589.35
2019-02-23T02:40:48.601Z,587.92
2019-02-23T02:43:18.363Z,598.58
2019-02-23T02:45:47.976Z,597.52
2019-02-23T02:48:17.703Z,585.73
2019-02-23T02:50:47.360Z,595.50
2019-02-23T02:53:17.141Z,594.85
2019-02-23T02:55:46.820Z,589.83
2019-02-23T02:58:16.557Z,595.35
2019-02-23T03:00:46.189Z,598.02
2019-02-23T03:03:15.970Z,588.60
2019-02-23T03:05:45.863Z,597.58
2019-02-23T03:08:15.480Z,588.35
2019-02-23T03:10:45.066Z,590.52
2019-02-23T03:13:14.687Z,595.20
2019-02-23T03:15:44.435Z,586.23
2019-02-23T03:18:14.212Z,583.10
2019-02-23T03:20:43.882Z,581.92
2019-02-23T03:23:13.704Z,573.20
2019-02-23T03:25:43.298Z,584.42
2019-02-23T03:28:14.296Z,573.90
2019-02-23T03:30:43.913Z,583.38
2019-02-23T03:33:13.682Z,592.83
2019-02-23T03:35:43.461Z,579.62
2019-02-23T03:38:13.214Z,592.87
2019-02-23T03:40:43.121Z,591.20
2019-02-23T03:43:12.809Z,578.42
2019-02-23T03:45:42.545Z,581.70
2019-02-23T03:48:12.293Z,566.88
2019-02-23T03:50:48.954Z,566.00
2019-02-23T03:53:13.475Z,553.38
2019-02-23T03:55:43.061Z,567.22
2019-02-23T03:58:12.903Z,560.90
2019-02-23T04:00:42.707Z,558.70
2019-02-23T04:03:12.329Z,553.42
2019-02-23T04:05:42.110Z,532.83
2019-02-23T04:08:11.804Z,530.95
2019-02-23T04:10:41.558Z,539.55
2019-02-23T04:13:11.225Z,548.05
2019-02-23T04:15:40.997Z,540.65
2019-02-23T04:18:11.599Z,538.72
2019-02-23T04:20:41.453Z,538.20
2019-02-23T04:23:11.078Z,530.35
2019-02-23T04:25:40.838Z,537.95
2019-02-23T04:28:10.528Z,540.08
2019-02-23T04:30:40.344Z,522.75
2019-02-23T04:33:09.936Z,522.35
2019-02-23T04:35:39.685Z,519.30
2019-02-23T04:38:09.285Z,526.73
2019-02-23T04:40:38.936Z,532.58
2019-02-23T04:43:08.668Z,524.17
2019-02-23T04:45:38.366Z,559.22
2019-02-23T04:48:08.120Z,557.08
2019-02-23T04:50:37.908Z,568.40
2019-02-23T04:53:07.683Z,552.85
2019-02-23T04:55:37.419Z,535.23
2019-02-23T04:58:07.103Z,531.37
2019-02-23T05:00:36.847Z,526.52
2019-02-23T05:03:06.510Z,520.92
2019-02-23T05:05:36.330Z,524.27
2019-02-23T05:08:05.924Z,518.00
2019-02-23T05:10:35.691Z,524.17
2019-02-23T05:13:05.387Z,527.65
2019-02-23T05:15:35.071Z,517.33
2019-02-23T05:18:04.754Z,532.15
2019-02-23T05:20:34.456Z,522.57
2019-02-23T05:23:04.322Z,531.87
2019-02-23T05:25:33.983Z,530.92
2019-02-23T05:28:03.594Z,522.10
2019-02-23T05:30:33.426Z,531.58
2019-02-23T05:33:03.175Z,532.77
2019-02-23T05:35:33.827Z,534.50
2019-02-23T05:38:03.512Z,537.20
2019-02-23T05:40:33.261Z,526.85
2019-02-23T05:43:03.450Z,530.50
2019-02-23T05:45:33.197Z,514.65
2019-02-23T05:48:02.803Z,531.10
2019-02-23T05:50:32.536Z,531.63
2019-02-23T05:53:02.319Z,517.77
2019-02-23T05:55:32.001Z,526.35
2019-02-23T05:58:01.695Z,521.67
2019-02-23T06:00:31.471Z,525.53
2019-02-23T06:03:01.065Z,526.02
2019-02-23T06:05:30.712Z,523.67
2019-02-23T06:08:00.456Z,521.92
2019-02-23T06:10:30.210Z,529.53
2019-02-23T06:13:00.778Z,526.27
2019-02-23T06:15:30.473Z,520.67
2019-02-23T06:18:00.209Z,528.27
2019-02-23T06:20:29.881Z,523.90
2019-02-23T06:22:59.647Z,529.83
2019-02-23T06:25:29.317Z,525.40
2019-02-23T06:27:59.275Z,523.70
2019-02-23T06:30:29.015Z,531.90
2019-02-23T06:32:58.690Z,534.45
2019-02-23T06:35:28.418Z,528.83
2019-02-23T06:37:58.039Z,525.30
2019-02-23T06:40:27.754Z,527.05
2019-02-23T06:42:57.977Z,534.70
2019-02-23T06:45:27.656Z,546.37
2019-02-23T06:47:57.270Z,544.03
2019-02-23T06:50:26.970Z,557.90
2019-02-23T06:52:56.603Z,556.42
2019-02-23T06:55:26.383Z,560.65
2019-02-23T06:57:56.073Z,544.50
2019-02-23T07:00:25.807Z,549.35
2019-02-23T07:02:55.491Z,544.13
2019-02-23T07:05:25.283Z,548.30
2019-02-23T07:07:54.923Z,549.35
2019-02-23T07:10:24.666Z,549.00
2019-02-23T07:12:54.368Z,547.37
2019-02-23T07:15:24.128Z,537.60
2019-02-23T07:17:53.755Z,543.67
2019-02-23T07:20:24.567Z,555.20
2019-02-23T07:22:55.102Z,562.67
2019-02-23T07:25:24.863Z,548.92
2019-02-23T07:27:54.552Z,547.90
2019-02-23T07:30:24.334Z,560.97
2019-02-23T07:32:54.073Z,553.77
2019-02-23T07:35:23.844Z,559.25
2019-02-23T07:37:53.456Z,551.27
2019-02-23T07:40:23.232Z,558.47
2019-02-23T07:42:52.899Z,557.60
2019-02-23T07:45:22.617Z,568.15
2019-02-23T07:47:52.236Z,559.77
2019-02-23T07:50:21.976Z,554.75
2019-02-23T07:52:51.713Z,560.83
2019-02-23T07:55:21.512Z,550.77
2019-02-23T07:57:51.109Z,552.65
2019-02-23T08:00:20.870Z,556.65
2019-02-23T08:02:50.593Z,553.45
2019-02-23T08:05:20.358Z,554.60
2019-02-23T08:07:50.041Z,551.75
2019-02-23T08:10:19.816Z,559.37
2019-02-23T08:12:49.425Z,553.30
2019-02-23T08:15:19.179Z,564.13
2019-02-23T08:17:48.769Z,562.85
2019-02-23T08:20:18.523Z,553.05
2019-02-23T08:22:48.196Z,560.05
2019-02-23T08:25:17.974Z,564.67
2019-02-23T08:27:47.590Z,553.42
2019-02-23T08:30:17.745Z,570.00
2019-02-23T08:32:47.352Z,569.97
2019-02-23T08:35:17.158Z,572.10
2019-02-23T08:37:47.075Z,570.33
2019-02-23T08:40:17.560Z,577.88
2019-02-23T08:42:47.561Z,567.95
2019-02-23T08:45:17.379Z,573.45
2019-02-23T08:47:47.048Z,562.90
2019-02-23T08:50:16.796Z,574.00
2019-02-23T08:52:49.491Z,578.53
2019-02-23T08:55:17.856Z,567.42
2019-02-23T08:57:47.819Z,577.65
2019-02-23T09:00:18.568Z,573.83
2019-02-23T09:02:48.429Z,579.30
2019-02-23T09:05:18.211Z,575.40
2019-02-23T09:07:48.036Z,584.83
2019-02-23T09:10:17.708Z,578.90
2019-02-23T09:12:47.447Z,582.17
2019-02-23T09:15:17.257Z,593.25
2019-02-23T09:17:46.906Z,596.95
2019-02-23T09:20:16.629Z,607.33
2019-02-23T09:22:46.758Z,619.08
2019-02-23T09:25:16.344Z,623.92
2019-02-23T09:27:46.084Z,622.17
2019-02-23T09:30:15.827Z,610.87
2019-02-23T09:32:45.613Z,612.52
2019-02-23T09:35:15.278Z,602.20
2019-02-23T09:37:45.086Z,631.00
2019-02-23T09:40:17.181Z,601.52
2019-02-23T09:42:46.866Z,598.62
2019-02-23T09:45:16.598Z,609.67
2019-02-23T09:47:46.220Z,589.13
2019-02-23T09:50:15.969Z,599.83
2019-02-23T09:52:45.653Z,593.52
2019-02-23T09:55:15.358Z,596.77
2019-02-23T09:57:44.979Z,619.97
2019-02-23T10:00:14.912Z,608.53
2019-02-23T10:02:44.561Z,605.77
2019-02-23T10:05:14.514Z,596.95
2019-02-23T10:07:44.200Z,597.23
2019-02-23T10:10:14.133Z,601.45
2019-02-23T10:12:43.832Z,604.10
2019-02-23T10:15:13.569Z,587.75
2019-02-23T10:17:43.281Z,609.63
2019-02-23T10:20:14.993Z,618.95
2019-02-23T10:22:44.664Z,624.20
2019-02-23T10:25:14.344Z,622.02
2019-02-23T10:27:44.060Z,630.65
2019-02-23T10:30:17.116Z,618.00
2019-02-23T10:32:46.813Z,625.98
2019-02-23T10:35:16.682Z,624.67
2019-02-23T10:37:46.281Z,624.45
2019-02-23T10:40:16.770Z,616.00
2019-02-23T10:42:46.388Z,616.88
2019-02-23T10:45:16.114Z,626.42
2019-02-23T10:47:45.724Z,626.02
2019-02-23T10:50:16.216Z,630.52
2019-02-23T10:52:46.034Z,642.77
2019-02-23T10:55:16.314Z,661.83
2019-02-23T10:57:46.062Z,654.97
2019-02-23T11:00:22.789Z,668.77
2019-02-23T11:02:52.662Z,665.88
2019-02-23T11:05:22.490Z,698.42
2019-02-23T11:07:53.240Z,711.20
2019-02-23T11:10:23.141Z,711.88
2019-02-23T11:12:52.833Z,714.32
2019-02-23T11:15:22.704Z,710.00
2019-02-23T11:17:52.459Z,708.23
2019-02-23T11:20:22.688Z,704.70
2019-02-23T11:22:52.437Z,707.27
2019-02-23T11:25:22.342Z,701.95
2019-02-23T11:27:52.082Z,705.25
2019-02-23T11:30:21.747Z,697.90
2019-02-23T11:32:51.587Z,695.65
2019-02-23T11:35:21.439Z,683.07
2019-02-23T11:37:51.204Z,687.72
2019-02-23T11:40:23.332Z,691.33
2019-02-23T11:42:52.341Z,703.25
2019-02-23T11:45:22.153Z,702.52
2019-02-23T11:47:51.858Z,692.77
2019-02-23T11:50:21.670Z,702.70
2019-02-23T11:52:51.432Z,696.33
2019-02-23T11:55:21.195Z,694.30
2019-02-23T11:57:50.941Z,698.65
2019-02-23T12:00:20.960Z,709.00
2019-02-23T12:02:52.821Z,718.48
2019-02-23T12:05:22.246Z,726.30
2019-02-23T12:07:52.080Z,732.05
2019-02-23T12:10:21.694Z,728.77
2019-02-23T12:12:51.405Z,737.67
2019-02-23T12:15:21.152Z,751.77
2019-02-23T12:17:51.211Z,761.85
2019-02-23T12:20:20.800Z,766.88
2019-02-23T12:22:50.446Z,769.13
2019-02-23T12:25:20.132Z,771.00
2019-02-23T12:27:49.788Z,770.03
2019-02-23T12:30:19.382Z,768.55
2019-02-23T12:32:49.182Z,763.33
2019-02-23T12:35:18.881Z,762.40
2019-02-23T12:37:48.601Z,763.12
2019-02-23T12:40:18.347Z,767.90
2019-02-23T12:42:48.034Z,768.02
2019-02-23T12:45:18.045Z,765.50
2019-02-23T12:47:47.800Z,766.27
2019-02-23T12:50:17.555Z,775.62
2019-02-23T12:52:47.393Z,776.47
2019-02-23T12:55:17.123Z,782.47
2019-02-23T12:57:46.873Z,775.98
2019-02-23T13:00:17.920Z,767.70
2019-02-23T13:02:47.779Z,769.80
2019-02-23T13:05:17.442Z,752.20
2019-02-23T13:07:47.130Z,760.33
2019-02-23T13:10:16.871Z,760.75
2019-02-23T13:13:07.378Z,765.12
2019-02-23T13:15:45.925Z,760.50
2019-02-23T13:18:24.349Z,769.97
2019-02-23T13:20:57.029Z,769.90
2019-02-23T13:24:01.128Z,772.20
2019-02-23T13:26:56.042Z,786.55
2019-02-23T13:29:34.327Z,783.15
2019-02-23T13:32:21.159Z,785.25
2019-02-23T13:35:05.505Z,781.67
2019-02-23T13:37:43.847Z,775.53
2019-02-23T13:40:46.543Z,782.20
2019-02-23T13:43:38.339Z,778.25
2019-02-23T13:46:16.608Z,759.25
2019-02-23T13:49:11.640Z,757.95
2019-02-23T13:51:56.164Z,749.90
2019-02-23T13:54:53.971Z,757.92
2019-02-23T13:57:29.077Z,742.37
2019-02-23T14:00:13.769Z,741.98
2019-02-23T14:02:55.621Z,738.60
2019-02-23T14:05:46.111Z,738.50
2019-02-23T14:08:46.879Z,733.80
2019-02-23T14:11:31.281Z,743.60
2019-02-23T14:14:20.093Z,751.50
2019-02-23T14:17:07.771Z,738.98
2019-02-23T14:19:45.826Z,747.50
2019-02-23T14:22:27.742Z,742.95
2019-02-23T14:25:06.038Z,750.65
2019-02-23T14:28:11.568Z,746.40
2019-02-23T14:30:58.880Z,735.23
2019-02-23T14:33:49.417Z,740.88
2019-02-23T14:36:24.663Z,727.80
2019-02-23T14:39:19.571Z,740.95
2019-02-23T14:42:13.027Z,738.45
2019-02-23T14:44:45.822Z,734.25
2019-02-23T14:47:36.493Z,739.85
2019-02-23T14:50:15.446Z,731.78
2019-02-23T14:53:04.178Z,732.65
2019-02-23T14:55:40.029Z,732.60
2019-02-23T14:58:36.367Z,737.40
2019-02-23T15:01:31.594Z,738.37
2019-02-23T15:04:09.870Z,737.88
2019-02-23T15:06:54.383Z,730.50
2019-02-23T15:10:02.029Z,712.17
2019-02-23T15:12:57.301Z,720.98
2019-02-23T15:15:35.711Z,726.60
2019-02-23T15:18:17.008Z,723.50
2019-02-23T15:21:19.639Z,727.25
2019-02-23T15:24:08.509Z,726.13
2019-02-23T15:26:57.448Z,731.30
2019-02-23T15:29:39.951Z,735.05
2019-02-23T15:32:31.756Z,729.42
2019-02-23T15:35:20.957Z,729.70
2019-02-23T15:37:56.445Z,724.55
2019-02-23T15:40:38.023Z,724.23
2019-02-23T15:43:45.349Z,720.27
2019-02-23T15:46:20.955Z,726.60
2019-02-23T15:49:05.945Z,721.17
2019-02-23T15:51:35.811Z,723.88
2019-02-23T15:54:05.577Z,709.03
2019-02-23T15:56:35.209Z,704.98
2019-02-23T15:59:05.004Z,697.90
2019-02-23T16:01:34.669Z,698.65
2019-02-23T16:04:04.518Z,698.92
2019-02-23T16:06:35.028Z,690.08
2019-02-23T16:09:05.732Z,680.87
2019-02-23T16:11:35.338Z,681.52
2019-02-23T16:14:05.071Z,675.62
2019-02-23T16:16:34.826Z,683.48
2019-02-23T16:19:05.473Z,675.40
2019-02-23T16:21:35.149Z,668.13
2019-02-23T16:24:04.936Z,663.70
2019-02-23T16:26:34.641Z,659.05
2019-02-23T16:29:04.355Z,658.90
2019-02-23T16:31:34.045Z,659.27
2019-02-23T16:34:07.088Z,643.50
2019-02-23T16:36:35.071Z,646.20
2019-02-23T16:39:08.414Z,640.83
2019-02-23T16:41:38.080Z,631.02
2019-02-23T16:44:07.918Z,625.02
2019-02-23T16:46:37.551Z,615.35
2019-02-23T16:49:07.326Z,636.00
2019-02-23T16:51:36.983Z,610.58
2019-02-23T16:54:06.707Z,611.15
2019-02-23T16:56:36.329Z,608.20
2019-02-23T16:59:05.935Z,607.58
2019-02-23T17:01:35.543Z,598.55
2019-02-23T17:04:05.280Z,606.80
2019-02-23T17:06:35.026Z,585.17
2019-02-23T17:09:05.356Z,595.13
2019-02-23T17:11:35.193Z,610.78
2019-02-23T17:14:04.967Z,583.05
2019-02-23T17:16:34.651Z,595.10
2019-02-23T17:19:04.443Z,592.15
2019-02-23T17:21:34.107Z,581.53
2019-02-23T17:24:03.844Z,587.58
2019-02-23T17:26:36.637Z,585.37
2019-02-23T17:29:04.877Z,582.23
2019-02-23T17:31:34.581Z,599.00
2019-02-23T17:34:04.267Z,587.65
2019-02-23T17:36:34.113Z,586.33
2019-02-23T17:39:04.231Z,588.15
2019-02-23T17:41:33.850Z,581.95
2019-02-23T17:44:03.575Z,589.23
2019-02-23T17:46:33.268Z,596.03
2019-02-23T17:49:02.948Z,598.25
2019-02-23T17:51:32.631Z,596.27
2019-02-23T17:54:02.321Z,584.17
2019-02-23T17:56:32.003Z,594.43
2019-02-23T17:59:01.864Z,590.60
2019-02-23T18:01:31.470Z,585.70
2019-02-23T18:04:01.182Z,582.85
2019-02-23T18:06:31.083Z,584.05
2019-02-23T18:09:01.247Z,596.92
2019-02-23T18:11:30.919Z,585.48
2019-02-23T18:14:01.455Z,586.98
2019-02-23T18:16:31.169Z,587.93
2019-02-23T18:19:00.887Z,590.42
2019-02-23T18:21:30.582Z,577.95
2019-02-23T18:24:00.249Z,589.52
2019-02-23T18:26:29.860Z,588.65
2019-02-23T18:28:59.578Z,582.47
2019-02-23T18:31:29.213Z,582.67
2019-02-23T18:33:59.021Z,581.33
2019-02-23T18:36:28.654Z,585.45
2019-02-23T18:38:58.293Z,586.33
2019-02-23T18:41:27.877Z,578.15
2019-02-23T18:43:57.589Z,582.98
2019-02-23T18:46:27.226Z,589.60
2019-02-23T18:48:56.918Z,590.60
2019-02-23T18:51:26.526Z,578.48
2019-02-23T18:53:56.138Z,571.22
2019-02-23T18:56:29.678Z,574.15
2019-02-23T18:58:57.118Z,586.92
2019-02-23T19:01:27.628Z,573.90
2019-02-23T19:03:57.248Z,584.40
2019-02-23T19:06:26.898Z,584.00
2019-02-23T19:08:56.598Z,578.38
2019-02-23T19:11:26.182Z,593.17
2019-02-23T19:13:56.783Z,580.10
2019-02-23T19:16:26.380Z,567.83
2019-02-23T19:18:55.986Z,564.55
2019-02-23T19:21:25.752Z,565.83
2019-02-23T19:23:55.441Z,561.02
2019-02-23T19:26:25.177Z,563.63
2019-02-23T19:28:54.813Z,570.45
2019-02-23T19:31:24.542Z,572.10
2019-02-23T19:33:54.161Z,589.05
2019-02-23T19:36:23.747Z,569.37
2019-02-23T19:38:53.519Z,567.63
2019-02-23T19:41:23.167Z,561.52
2019-02-23T19:43:52.874Z,556.97
2019-02-23T19:46:22.909Z,564.15
2019-02-23T19:48:52.526Z,553.45
2019-02-23T19:51:22.216Z,559.60
2019-02-23T19:53:51.871Z,554.93
2019-02-23T19:56:21.641Z,552.15
2019-02-23T19:58:51.308Z,548.05
2019-02-23T20:01:21.028Z,546.90
2019-02-23T20:03:50.699Z,549.35
2019-02-23T20:06:20.427Z,538.63
2019-02-23T20:08:50.112Z,541.33
2019-02-23T20:11:19.738Z,542.30
2019-02-23T20:13:49.488Z,551.30
2019-02-23T20:16:19.108Z,539.40
2019-02-23T20:18:48.870Z,535.45
2019-02-23T20:21:18.566Z,536.33
2019-02-23T20:23:48.326Z,530.70
2019-02-23T20:26:17.920Z,545.23
2019-02-23T20:28:47.598Z,535.17
2019-02-23T20:31:17.247Z,526.20
2019-02-23T20:33:46.835Z,531.63
2019-02-23T20:36:16.458Z,536.45
2019-02-23T20:38:46.290Z,529.20
2019-02-23T20:41:15.899Z,526.85
2019-02-23T20:43:45.646Z,524.70
2019-02-23T20:46:15.245Z,525.05
2019-02-23T20:48:45.012Z,523.67
2019-02-23T20:51:14.704Z,530.95
2019-02-23T20:53:44.297Z,529.37
2019-02-23T20:56:14.057Z,527.73
2019-02-23T20:58:43.722Z,526.43
2019-02-23T21:01:13.458Z,527.28
2019-02-23T21:03:44.064Z,522.05
2019-02-23T21:06:13.916Z,531.65
2019-02-23T21:08:43.702Z,525.73
2019-02-23T21:11:13.386Z,523.60
2019-02-23T21:13:43.028Z,520.30
2019-02-23T21:16:12.809Z,527.85
2019-02-23T21:18:42.465Z,524.40
2019-02-23T21:21:12.217Z,514.58
2019-02-23T21:23:41.862Z,517.48
2019-02-23T21:26:11.614Z,514.52
2019-02-23T21:28:41.199Z,513.05
2019-02-23T21:31:10.809Z,510.52
2019-02-23T21:33:40.403Z,512.77
2019-02-23T21:36:10.126Z,506.80
2019-02-23T21:38:40.663Z,512.20
2019-02-23T21:41:10.443Z,511.28
2019-02-23T21:43:40.127Z,512.35
2019-02-23T21:46:09.798Z,516.58
2019-02-23T21:48:39.546Z,516.85
2019-02-23T21:51:09.397Z,512.15
2019-02-23T21:53:39.023Z,508.05
2019-02-23T21:56:08.784Z,510.85
2019-02-23T21:58:38.444Z,514.45
2019-02-23T22:01:08.172Z,509.73
2019-02-23T22:03:37.888Z,504.32
2019-02-23T22:06:07.673Z,509.00
2019-02-23T22:08:37.318Z,507.20
2019-02-23T22:11:07.044Z,508.20
2019-02-23T22:13:36.680Z,511.02
2019-02-23T22:16:06.432Z,507.60
2019-02-23T22:18:36.101Z,502.20
2019-02-23T22:21:05.930Z,508.80
2019-02-23T22:23:35.712Z,500.30
2019-02-23T22:26:05.579Z,508.75
2019-02-23T22:28:35.191Z,502.95
2019-02-23T22:31:05.094Z,496.50
2019-02-23T22:33:35.065Z,501.87
2019-02-23T22:36:04.795Z,497.35
2019-02-23T22:38:34.416Z,499.20
2019-02-23T22:41:04.082Z,497.65
2019-02-23T22:43:33.753Z,501.73
2019-02-23T22:46:03.347Z,494.77
2019-02-23T22:48:33.192Z,505.95
2019-02-23T22:51:02.853Z,501.47
2019-02-23T22:53:35.474Z,495.00
2019-02-23T22:56:05.141Z,499.10
2019-02-23T22:58:34.835Z,501.33
2019-02-23T23:01:05.789Z,498.87
2019-02-23T23:03:35.486Z,494.23
2019-02-23T23:06:05.100Z,501.77
2019-02-23T23:08:34.805Z,507.50
2019-02-23T23:11:04.616Z,502.28
2019-02-23T23:13:34.238Z,503.00
2019-02-23T23:16:03.834Z,499.30
2019-02-23T23:18:33.794Z,501.70
2019-02-23T23:21:03.458Z,501.30
2019-02-23T23:23:33.153Z,488.70
2019-02-23T23:26:02.834Z,486.82
2019-02-23T23:28:32.564Z,489.63
2019-02-23T23:31:02.172Z,506.15
2019-02-23T23:33:31.883Z,497.15
2019-02-23T23:36:01.556Z,501.57
2019-02-23T23:38:31.281Z,491.27
2019-02-23T23:41:00.886Z,492.23
2019-02-23T23:43:30.634Z,486.45
2019-02-23T23:46:00.351Z,486.70
2019-02-23T23:48:30.087Z,498.23
2019-02-23T23:50:59.758Z,498.28
2019-02-23T23:53:29.737Z,486.85
2019-02-23T23:55:59.349Z,481.43
2019-02-23T23:58:29.033Z,477.43
